sensor_id;sensor_type;location;lat;lon;timestamp;pressure;altitude;pressure_sealevel;temperature;humidity
68871;BME280;55906;52.278;6.808;2023-05-08T00:00:27;101951.34;;;16.05;66.79
68871;BME280;55906;52.278;6.808;2023-05-08T00:02:55;101964.66;;;16.06;66.93
68871;BME280;55906;52.278;6.808;2023-05-08T00:05:21;101953.94;;;16.02;66.82
68871;BME280;55906;52.278;6.808;2023-05-08T00:07:48;101960.00;;;15.96;67.09
68871;BME280;55906;52.278;6.808;2023-05-08T00:10:17;101957.34;;;15.94;67.22
68871;BME280;55906;52.278;6.808;2023-05-08T00:12:44;101962.50;;;15.88;67.14
68871;BME280;55906;52.278;6.808;2023-05-08T00:15:11;101959.84;;;15.88;67.38
68871;BME280;55906;52.278;6.808;2023-05-08T00:17:37;101955.41;;;15.87;67.02
68871;BME280;55906;52.278;6.808;2023-05-08T00:20:05;101953.56;;;15.83;67.45
68871;BME280;55906;52.278;6.808;2023-05-08T00:22:33;101957.03;;;15.81;67.31
68871;BME280;55906;52.278;6.808;2023-05-08T00:24:59;101957.97;;;15.83;67.50
68871;BME280;55906;52.278;6.808;2023-05-08T00:27:28;101965.03;;;15.82;67.23
68871;BME280;55906;52.278;6.808;2023-05-08T00:29:55;101959.69;;;15.81;67.22
68871;BME280;55906;52.278;6.808;2023-05-08T00:32:21;101957.81;;;15.77;67.78
68871;BME280;55906;52.278;6.808;2023-05-08T00:34:48;101956.78;;;15.70;67.81
68871;BME280;55906;52.278;6.808;2023-05-08T00:37:15;101957.72;;;15.72;67.59
68871;BME280;55906;52.278;6.808;2023-05-08T00:39:41;101958.63;;;15.73;67.32
68871;BME280;55906;52.278;6.808;2023-05-08T00:42:08;101951.50;;;15.70;67.82
68871;BME280;55906;52.278;6.808;2023-05-08T00:44:36;101961.16;;;15.68;67.54
68871;BME280;55906;52.278;6.808;2023-05-08T00:47:03;101957.63;;;15.67;67.93
68871;BME280;55906;52.278;6.808;2023-05-08T00:49:31;101953.16;;;15.65;67.79
68871;BME280;55906;52.278;6.808;2023-05-08T00:52:00;101959.19;;;15.59;67.61
68871;BME280;55906;52.278;6.808;2023-05-08T00:54:28;101956.59;;;15.61;67.77
68871;BME280;55906;52.278;6.808;2023-05-08T00:56:55;101954.84;;;15.61;67.68
68871;BME280;55906;52.278;6.808;2023-05-08T00:59:23;101953.88;;;15.59;67.58
68871;BME280;55906;52.278;6.808;2023-05-08T01:01:52;101944.91;;;15.56;67.82
68871;BME280;55906;52.278;6.808;2023-05-08T01:04:23;101948.44;;;15.55;67.96
68871;BME280;55906;52.278;6.808;2023-05-08T01:06:50;101946.59;;;15.52;67.87
68871;BME280;55906;52.278;6.808;2023-05-08T01:09:17;101935.91;;;15.49;67.74
68871;BME280;55906;52.278;6.808;2023-05-08T01:11:48;101950.09;;;15.51;68.07
68871;BME280;55906;52.278;6.808;2023-05-08T01:14:28;101940.31;;;15.49;68.03
68871;BME280;55906;52.278;6.808;2023-05-08T01:17:08;101945.59;;;15.47;68.17
68871;BME280;55906;52.278;6.808;2023-05-08T01:19:49;101944.66;;;15.45;68.11
68871;BME280;55906;52.278;6.808;2023-05-08T01:22:31;101941.97;;;15.44;67.67
68871;BME280;55906;52.278;6.808;2023-05-08T01:25:37;101948.09;;;15.41;68.45
68871;BME280;55906;52.278;6.808;2023-05-08T01:28:28;101935.53;;;15.32;68.53
68871;BME280;55906;52.278;6.808;2023-05-08T01:31:11;101948.84;;;15.35;68.41
68871;BME280;55906;52.278;6.808;2023-05-08T01:33:46;101951.47;;;15.34;67.99
68871;BME280;55906;52.278;6.808;2023-05-08T01:36:21;101952.22;;;15.28;68.43
68871;BME280;55906;52.278;6.808;2023-05-08T01:38:54;101960.19;;;15.28;68.23
68871;BME280;55906;52.278;6.808;2023-05-08T01:41:25;101967.06;;;15.20;68.33
68871;BME280;55906;52.278;6.808;2023-05-08T01:43:56;101960.81;;;15.18;68.21
68871;BME280;55906;52.278;6.808;2023-05-08T01:46:27;101963.38;;;15.15;68.05
68871;BME280;55906;52.278;6.808;2023-05-08T01:49:04;101958.13;;;15.17;68.64
68871;BME280;55906;52.278;6.808;2023-05-08T01:51:36;101959.88;;;15.16;68.45
68871;BME280;55906;52.278;6.808;2023-05-08T01:54:05;101952.78;;;15.15;68.47
68871;BME280;55906;52.278;6.808;2023-05-08T01:56:34;101952.63;;;15.09;68.19
68871;BME280;55906;52.278;6.808;2023-05-08T01:59:03;101960.59;;;15.09;68.43
68871;BME280;55906;52.278;6.808;2023-05-08T02:01:32;101957.94;;;15.09;68.35
68871;BME280;55906;52.278;6.808;2023-05-08T02:04:01;101957.94;;;15.09;68.38
68871;BME280;55906;52.278;6.808;2023-05-08T02:06:29;101957.97;;;15.11;68.12
68871;BME280;55906;52.278;6.808;2023-05-08T02:08:58;101957.03;;;15.09;68.26
68871;BME280;55906;52.278;6.808;2023-05-08T02:11:26;101949.91;;;15.06;68.38
68871;BME280;55906;52.278;6.808;2023-05-08T02:13:56;101959.56;;;15.04;68.40
68871;BME280;55906;52.278;6.808;2023-05-08T02:16:27;101964.03;;;15.05;68.20
68871;BME280;55906;52.278;6.808;2023-05-08T02:18:56;101963.94;;;15.02;68.38
68871;BME280;55906;52.278;6.808;2023-05-08T02:21:26;101963.00;;;15.00;68.50
68871;BME280;55906;52.278;6.808;2023-05-08T02:23:55;101964.69;;;14.96;68.68
68871;BME280;55906;52.278;6.808;2023-05-08T02:26:24;101966.34;;;14.93;68.47
68871;BME280;55906;52.278;6.808;2023-05-08T02:28:52;101961.03;;;14.91;68.63
68871;BME280;55906;52.278;6.808;2023-05-08T02:31:20;101961.91;;;14.92;68.69
68871;BME280;55906;52.278;6.808;2023-05-08T02:33:48;101968.84;;;14.87;68.75
68871;BME280;55906;52.278;6.808;2023-05-08T02:36:16;101962.72;;;14.89;68.38
68871;BME280;55906;52.278;6.808;2023-05-08T02:38:49;101964.50;;;14.89;68.69
68871;BME280;55906;52.278;6.808;2023-05-08T02:41:18;101954.72;;;14.86;68.50
68871;BME280;55906;52.278;6.808;2023-05-08T02:43:45;101952.88;;;14.84;68.48
68871;BME280;55906;52.278;6.808;2023-05-08T02:46:15;101947.38;;;14.76;69.19
68871;BME280;55906;52.278;6.808;2023-05-08T02:48:50;101944.69;;;14.75;68.86
68871;BME280;55906;52.278;6.808;2023-05-08T02:51:20;101944.59;;;14.71;68.78
68871;BME280;55906;52.278;6.808;2023-05-08T02:53:54;101949.88;;;14.70;69.10
68871;BME280;55906;52.278;6.808;2023-05-08T02:56:29;101946.19;;;14.65;68.74
68871;BME280;55906;52.278;6.808;2023-05-08T02:59:03;101954.06;;;14.62;68.83
68871;BME280;55906;52.278;6.808;2023-05-08T03:01:41;101952.19;;;14.58;69.03
68871;BME280;55906;52.278;6.808;2023-05-08T03:04:11;101955.66;;;14.55;68.99
68871;BME280;55906;52.278;6.808;2023-05-08T03:06:44;101952.84;;;14.49;69.07
68871;BME280;55906;52.278;6.808;2023-05-08T03:09:17;101955.47;;;14.49;68.92
68871;BME280;55906;52.278;6.808;2023-05-08T03:11:48;101952.72;;;14.45;69.27
68871;BME280;55906;52.278;6.808;2023-05-08T03:14:19;101956.75;;;14.32;69.63
68871;BME280;55906;52.278;6.808;2023-05-08T03:16:49;101964.44;;;14.24;70.04
68871;BME280;55906;52.278;6.808;2023-05-08T03:19:21;101967.13;;;14.26;69.46
68871;BME280;55906;52.278;6.808;2023-05-08T03:21:50;101963.66;;;14.28;68.90
68871;BME280;55906;52.278;6.808;2023-05-08T03:24:21;101971.44;;;14.22;69.62
68871;BME280;55906;52.278;6.808;2023-05-08T03:26:49;101968.75;;;14.21;69.35
68871;BME280;55906;52.278;6.808;2023-05-08T03:29:17;101966.84;;;14.17;69.10
68871;BME280;55906;52.278;6.808;2023-05-08T03:31:45;101964.97;;;14.13;69.26
68871;BME280;55906;52.278;6.808;2023-05-08T03:34:12;101966.69;;;14.10;69.28
68871;BME280;55906;52.278;6.808;2023-05-08T03:36:40;101969.19;;;14.06;69.22
68871;BME280;55906;52.278;6.808;2023-05-08T03:39:07;101973.53;;;14.04;69.24
68871;BME280;55906;52.278;6.808;2023-05-08T03:41:35;101973.41;;;13.99;69.42
68871;BME280;55906;52.278;6.808;2023-05-08T03:44:02;101974.25;;;13.98;69.43
68871;BME280;55906;52.278;6.808;2023-05-08T03:46:30;101984.84;;;13.98;69.36
68871;BME280;55906;52.278;6.808;2023-05-08T03:48:57;101977.81;;;13.99;69.40
68871;BME280;55906;52.278;6.808;2023-05-08T03:51:25;101974.31;;;14.00;69.22
68871;BME280;55906;52.278;6.808;2023-05-08T03:53:53;101979.63;;;14.01;69.64
68871;BME280;55906;52.278;6.808;2023-05-08T03:56:19;101977.09;;;14.04;69.38
68871;BME280;55906;52.278;6.808;2023-05-08T03:58:53;101978.88;;;14.05;69.66
68871;BME280;55906;52.278;6.808;2023-05-08T04:01:23;101968.34;;;14.07;69.44
68871;BME280;55906;52.278;6.808;2023-05-08T04:03:56;101968.56;;;14.15;69.36
68871;BME280;55906;52.278;6.808;2023-05-08T04:06:28;101963.28;;;14.15;69.21
68871;BME280;55906;52.278;6.808;2023-05-08T04:09:04;101963.41;;;14.19;69.34
68871;BME280;55906;52.278;6.808;2023-05-08T04:11:40;101966.00;;;14.18;69.10
68871;BME280;55906;52.278;6.808;2023-05-08T04:14:12;101967.78;;;14.19;69.17
68871;BME280;55906;52.278;6.808;2023-05-08T04:16:47;101968.75;;;14.21;69.15
68871;BME280;55906;52.278;6.808;2023-05-08T04:19:19;101964.34;;;14.21;69.10
68871;BME280;55906;52.278;6.808;2023-05-08T04:21:49;101960.00;;;14.23;69.02
68871;BME280;55906;52.278;6.808;2023-05-08T04:24:20;101950.38;;;14.27;68.79
68871;BME280;55906;52.278;6.808;2023-05-08T04:26:48;101955.84;;;14.31;68.71
68871;BME280;55906;52.278;6.808;2023-05-08T04:29:17;101959.56;;;14.38;68.60
68871;BME280;55906;52.278;6.808;2023-05-08T04:31:45;101957.81;;;14.38;68.47
68871;BME280;55906;52.278;6.808;2023-05-08T04:34:12;101965.00;;;14.43;68.44
68871;BME280;55906;52.278;6.808;2023-05-08T04:36:39;101968.56;;;14.43;68.22
68871;BME280;55906;52.278;6.808;2023-05-08T04:39:06;101973.94;;;14.46;68.09
68871;BME280;55906;52.278;6.808;2023-05-08T04:41:33;101973.97;;;14.48;68.14
68871;BME280;55906;52.278;6.808;2023-05-08T04:43:59;101974.03;;;14.49;67.99
68871;BME280;55906;52.278;6.808;2023-05-08T04:46:27;101966.97;;;14.50;67.81
68871;BME280;55906;52.278;6.808;2023-05-08T04:48:54;101973.22;;;14.52;68.05
68871;BME280;55906;52.278;6.808;2023-05-08T04:51:21;101973.22;;;14.52;67.81
68871;BME280;55906;52.278;6.808;2023-05-08T04:53:47;101973.09;;;14.47;67.84
68871;BME280;55906;52.278;6.808;2023-05-08T04:56:14;101981.06;;;14.49;67.74
68871;BME280;55906;52.278;6.808;2023-05-08T04:58:40;101976.66;;;14.49;67.97
68871;BME280;55906;52.278;6.808;2023-05-08T05:01:07;101980.25;;;14.51;67.68
68871;BME280;55906;52.278;6.808;2023-05-08T05:03:35;101984.75;;;14.54;67.57
68871;BME280;55906;52.278;6.808;2023-05-08T05:06:02;101983.06;;;14.57;67.44
68871;BME280;55906;52.278;6.808;2023-05-08T05:08:28;101974.34;;;14.61;67.38
68871;BME280;55906;52.278;6.808;2023-05-08T05:10:55;101981.44;;;14.62;67.38
68871;BME280;55906;52.278;6.808;2023-05-08T05:13:22;101988.63;;;14.66;66.91
68871;BME280;55906;52.278;6.808;2023-05-08T05:15:48;101993.84;;;14.63;67.11
68871;BME280;55906;52.278;6.808;2023-05-08T05:18:18;101990.38;;;14.66;67.18
68871;BME280;55906;52.278;6.808;2023-05-08T05:20:46;101994.13;;;14.74;66.72
68871;BME280;55906;52.278;6.808;2023-05-08T05:23:13;101993.31;;;14.77;66.90
68871;BME280;55906;52.278;6.808;2023-05-08T05:25:39;101994.31;;;14.82;66.83
68871;BME280;55906;52.278;6.808;2023-05-08T05:28:06;101982.97;;;14.86;66.62
68871;BME280;55906;52.278;6.808;2023-05-08T05:30:33;101984.00;;;14.92;66.31
68871;BME280;55906;52.278;6.808;2023-05-08T05:32:59;101979.75;;;14.99;66.46
68871;BME280;55906;52.278;6.808;2023-05-08T05:35:26;101982.53;;;15.03;66.40
68871;BME280;55906;52.278;6.808;2023-05-08T05:37:54;101980.84;;;15.07;65.97
68871;BME280;55906;52.278;6.808;2023-05-08T05:40:20;101988.94;;;15.12;65.86
68871;BME280;55906;52.278;6.808;2023-05-08T05:42:48;101998.81;;;15.19;65.82
68871;BME280;55906;52.278;6.808;2023-05-08T05:45:15;102007.00;;;15.28;65.63
68871;BME280;55906;52.278;6.808;2023-05-08T05:47:45;102004.66;;;15.40;65.40
68871;BME280;55906;52.278;6.808;2023-05-08T05:50:14;101997.78;;;15.48;65.34
68871;BME280;55906;52.278;6.808;2023-05-08T05:52:41;101997.00;;;15.52;64.93
68871;BME280;55906;52.278;6.808;2023-05-08T05:55:09;101997.84;;;15.51;65.06
68871;BME280;55906;52.278;6.808;2023-05-08T05:57:36;101993.44;;;15.52;65.06
68871;BME280;55906;52.278;6.808;2023-05-08T06:00:03;101998.72;;;15.50;65.06
68871;BME280;55906;52.278;6.808;2023-05-08T06:02:30;102003.22;;;15.54;64.57
68871;BME280;55906;52.278;6.808;2023-05-08T06:04:58;102001.50;;;15.56;64.57
68871;BME280;55906;52.278;6.808;2023-05-08T06:07:24;102007.72;;;15.57;64.58
68871;BME280;55906;52.278;6.808;2023-05-08T06:09:51;102008.69;;;15.59;65.00
68871;BME280;55906;52.278;6.808;2023-05-08T06:12:19;102014.09;;;15.62;64.44
68871;BME280;55906;52.278;6.808;2023-05-08T06:14:46;102015.91;;;15.64;64.57
68871;BME280;55906;52.278;6.808;2023-05-08T06:17:13;102014.94;;;15.61;64.77
68871;BME280;55906;52.278;6.808;2023-05-08T06:19:39;102013.28;;;15.64;64.52
68871;BME280;55906;52.278;6.808;2023-05-08T06:22:06;102005.41;;;15.69;64.53
68871;BME280;55906;52.278;6.808;2023-05-08T06:24:33;102009.78;;;15.67;64.24
68871;BME280;55906;52.278;6.808;2023-05-08T06:27:00;102011.66;;;15.71;64.65
68871;BME280;55906;52.278;6.808;2023-05-08T06:29:28;102012.69;;;15.78;64.54
68871;BME280;55906;52.278;6.808;2023-05-08T06:31:55;102017.38;;;15.89;63.99
68871;BME280;55906;52.278;6.808;2023-05-08T06:34:22;102011.38;;;15.98;63.92
68871;BME280;55906;52.278;6.808;2023-05-08T06:36:49;102012.53;;;16.11;63.64
68871;BME280;55906;52.278;6.808;2023-05-08T06:39:15;102007.56;;;16.26;63.19
68871;BME280;55906;52.278;6.808;2023-05-08T06:41:45;102003.56;;;16.48;63.05
68871;BME280;55906;52.278;6.808;2023-05-08T06:44:12;102011.03;;;16.66;62.15
68871;BME280;55906;52.278;6.808;2023-05-08T06:46:40;102012.16;;;16.78;62.08
68871;BME280;55906;52.278;6.808;2023-05-08T06:49:07;102014.13;;;16.88;61.52
68871;BME280;55906;52.278;6.808;2023-05-08T06:51:33;102010.56;;;16.88;61.42
68871;BME280;55906;52.278;6.808;2023-05-08T06:54:02;102010.03;;;17.04;61.19
68871;BME280;55906;52.278;6.808;2023-05-08T06:56:32;102011.16;;;17.18;60.73
68871;BME280;55906;52.278;6.808;2023-05-08T06:58:58;102022.97;;;17.36;60.76
68871;BME280;55906;52.278;6.808;2023-05-08T07:01:25;102012.56;;;17.51;60.35
68871;BME280;55906;52.278;6.808;2023-05-08T07:03:53;102006.69;;;17.70;60.05
68871;BME280;55906;52.278;6.808;2023-05-08T07:06:20;102010.53;;;17.90;59.78
68871;BME280;55906;52.278;6.808;2023-05-08T07:08:46;102008.00;;;18.00;58.74
68871;BME280;55906;52.278;6.808;2023-05-08T07:11:13;102002.81;;;18.09;58.85
68871;BME280;55906;52.278;6.808;2023-05-08T07:13:39;102003.91;;;18.23;58.78
68871;BME280;55906;52.278;6.808;2023-05-08T07:16:08;102004.97;;;18.37;58.82
68871;BME280;55906;52.278;6.808;2023-05-08T07:18:35;102011.38;;;18.51;58.43
68871;BME280;55906;52.278;6.808;2023-05-08T07:21:03;102013.25;;;18.60;57.53
68871;BME280;55906;52.278;6.808;2023-05-08T07:23:30;102003.75;;;18.83;57.45
68871;BME280;55906;52.278;6.808;2023-05-08T07:25:56;102011.00;;;18.98;57.29
68871;BME280;55906;52.278;6.808;2023-05-08T07:28:23;102010.34;;;19.24;56.80
68871;BME280;55906;52.278;6.808;2023-05-08T07:30:50;102008.78;;;19.48;56.53
68871;BME280;55906;52.278;6.808;2023-05-08T07:33:16;102012.56;;;19.72;55.65
68871;BME280;55906;52.278;6.808;2023-05-08T07:35:43;102008.25;;;19.92;56.01
68871;BME280;55906;52.278;6.808;2023-05-08T07:38:11;102010.16;;;20.16;55.36
68871;BME280;55906;52.278;6.808;2023-05-08T07:40:38;102004.03;;;20.40;55.80
68871;BME280;55906;52.278;6.808;2023-05-08T07:43:04;102010.28;;;20.42;54.57
68871;BME280;55906;52.278;6.808;2023-05-08T07:45:31;102007.69;;;20.68;54.46
68871;BME280;55906;52.278;6.808;2023-05-08T07:47:58;102007.75;;;20.83;53.94
68871;BME280;55906;52.278;6.808;2023-05-08T07:50:25;102011.34;;;21.03;53.25
68871;BME280;55906;52.278;6.808;2023-05-08T07:52:52;102005.13;;;21.14;52.68
68871;BME280;55906;52.278;6.808;2023-05-08T07:55:20;102006.91;;;21.10;52.70
68871;BME280;55906;52.278;6.808;2023-05-08T07:57:46;102011.41;;;21.28;52.92
68871;BME280;55906;52.278;6.808;2023-05-08T08:00:14;102015.84;;;21.61;52.38
68871;BME280;55906;52.278;6.808;2023-05-08T08:02:42;102004.22;;;21.69;52.47
68871;BME280;55906;52.278;6.808;2023-05-08T08:05:09;102008.69;;;21.70;52.98
68871;BME280;55906;52.278;6.808;2023-05-08T08:07:35;102000.59;;;21.92;52.53
68871;BME280;55906;52.278;6.808;2023-05-08T08:10:02;102001.47;;;22.08;51.92
68871;BME280;55906;52.278;6.808;2023-05-08T08:12:31;101991.59;;;22.29;51.32
68871;BME280;55906;52.278;6.808;2023-05-08T08:14:57;101996.94;;;22.32;50.39
68871;BME280;55906;52.278;6.808;2023-05-08T08:17:24;101996.13;;;22.09;50.96
68871;BME280;55906;52.278;6.808;2023-05-08T08:19:50;101995.19;;;22.22;50.75
68871;BME280;55906;52.278;6.808;2023-05-08T08:22:17;101999.53;;;22.52;50.73
68871;BME280;55906;52.278;6.808;2023-05-08T08:24:44;101991.47;;;22.54;50.04
68871;BME280;55906;52.278;6.808;2023-05-08T08:27:11;102001.22;;;22.67;49.64
68871;BME280;55906;52.278;6.808;2023-05-08T08:29:39;101986.81;;;22.88;49.28
68871;BME280;55906;52.278;6.808;2023-05-08T08:32:05;101991.09;;;23.13;48.94
68871;BME280;55906;52.278;6.808;2023-05-08T08:34:32;101998.25;;;23.16;48.54
68871;BME280;55906;52.278;6.808;2023-05-08T08:36:59;101997.16;;;23.37;48.53
68871;BME280;55906;52.278;6.808;2023-05-08T08:39:26;101991.09;;;23.15;49.33
68871;BME280;55906;52.278;6.808;2023-05-08T08:41:52;101987.28;;;23.40;48.59
68871;BME280;55906;52.278;6.808;2023-05-08T08:44:19;101988.38;;;23.18;49.02
68871;BME280;55906;52.278;6.808;2023-05-08T08:46:50;101986.53;;;23.24;48.62
68871;BME280;55906;52.278;6.808;2023-05-08T08:49:18;101983.59;;;23.59;48.73
68871;BME280;55906;52.278;6.808;2023-05-08T08:51:49;101981.44;;;23.92;47.91
68871;BME280;55906;52.278;6.808;2023-05-08T08:54:20;101992.50;;;24.41;47.79
68871;BME280;55906;52.278;6.808;2023-05-08T08:56:49;101982.25;;;24.71;47.30
68871;BME280;55906;52.278;6.808;2023-05-08T08:59:17;101981.16;;;24.84;46.00
68871;BME280;55906;52.278;6.808;2023-05-08T09:01:45;101978.09;;;25.10;46.67
68871;BME280;55906;52.278;6.808;2023-05-08T09:04:15;101984.66;;;25.44;45.88
68871;BME280;55906;52.278;6.808;2023-05-08T09:06:42;101984.91;;;25.81;46.00
68871;BME280;55906;52.278;6.808;2023-05-08T09:09:11;101981.56;;;25.69;45.48
68871;BME280;55906;52.278;6.808;2023-05-08T09:11:39;101980.69;;;25.67;45.93
68871;BME280;55906;52.278;6.808;2023-05-08T09:14:05;101982.03;;;25.91;44.56
68871;BME280;55906;52.278;6.808;2023-05-08T09:16:32;101980.16;;;25.45;44.65
68871;BME280;55906;52.278;6.808;2023-05-08T09:19:00;101983.00;;;25.37;45.97
68871;BME280;55906;52.278;6.808;2023-05-08T09:21:29;101982.69;;;25.54;44.94
68871;BME280;55906;52.278;6.808;2023-05-08T09:23:56;101971.53;;;25.26;45.63
68871;BME280;55906;52.278;6.808;2023-05-08T09:26:28;101983.38;;;25.68;45.18
68871;BME280;55906;52.278;6.808;2023-05-08T09:29:12;101981.13;;;25.90;44.35
68871;BME280;55906;52.278;6.808;2023-05-08T09:31:41;101972.75;;;26.07;44.53
68871;BME280;55906;52.278;6.808;2023-05-08T09:34:08;101967.09;;;26.19;44.62
68871;BME280;55906;52.278;6.808;2023-05-08T09:36:37;101960.28;;;26.43;43.75
68871;BME280;55906;52.278;6.808;2023-05-08T09:39:09;101973.50;;;26.55;43.77
68871;BME280;55906;52.278;6.808;2023-05-08T09:41:36;101965.88;;;26.35;44.45
68871;BME280;55906;52.278;6.808;2023-05-08T09:44:04;101956.22;;;26.64;43.97
68871;BME280;55906;52.278;6.808;2023-05-08T09:46:32;101957.59;;;26.43;43.58
68871;BME280;55906;52.278;6.808;2023-05-08T09:49:00;101965.09;;;26.27;43.68
68871;BME280;55906;52.278;6.808;2023-05-08T09:51:28;101957.56;;;26.83;43.31
68871;BME280;55906;52.278;6.808;2023-05-08T09:53:57;101963.41;;;27.02;42.39
68871;BME280;55906;52.278;6.808;2023-05-08T09:56:32;101954.13;;;27.14;42.39
68871;BME280;55906;52.278;6.808;2023-05-08T09:59:01;101962.03;;;27.21;42.25
68871;BME280;55906;52.278;6.808;2023-05-08T10:01:29;101953.03;;;27.89;42.30
68871;BME280;55906;52.278;6.808;2023-05-08T10:03:57;101951.28;;;28.48;41.30
68871;BME280;55906;52.278;6.808;2023-05-08T10:06:24;101954.44;;;28.92;40.18
68871;BME280;55906;52.278;6.808;2023-05-08T10:09:13;101947.66;;;29.58;39.43
68871;BME280;55906;52.278;6.808;2023-05-08T10:11:41;101949.81;;;29.73;38.47
68871;BME280;55906;52.278;6.808;2023-05-08T10:14:08;101948.41;;;29.86;37.93
68871;BME280;55906;52.278;6.808;2023-05-08T10:16:39;101948.59;;;30.07;37.56
68871;BME280;55906;52.278;6.808;2023-05-08T10:19:11;101946.81;;;30.52;37.06
68871;BME280;55906;52.278;6.808;2023-05-08T10:21:40;101940.06;;;31.06;36.19
68871;BME280;55906;52.278;6.808;2023-05-08T10:24:14;101937.84;;;31.38;36.18
68871;BME280;55906;52.278;6.808;2023-05-08T10:26:43;101932.81;;;31.49;35.89
68871;BME280;55906;52.278;6.808;2023-05-08T10:29:16;101937.50;;;31.25;33.86
68871;BME280;55906;52.278;6.808;2023-05-08T10:31:45;101941.78;;;30.87;35.49
68871;BME280;55906;52.278;6.808;2023-05-08T10:34:18;101935.75;;;31.24;34.83
68871;BME280;55906;52.278;6.808;2023-05-08T10:36:46;101927.50;;;31.87;34.92
68871;BME280;55906;52.278;6.808;2023-05-08T10:39:14;101923.44;;;31.76;34.57
68871;BME280;55906;52.278;6.808;2023-05-08T10:41:42;101932.69;;;31.72;33.32
68871;BME280;55906;52.278;6.808;2023-05-08T10:44:09;101925.19;;;32.17;33.72
68871;BME280;55906;52.278;6.808;2023-05-08T10:46:41;101922.00;;;31.88;33.27
68871;BME280;55906;52.278;6.808;2023-05-08T10:49:17;101931.25;;;31.43;33.82
68871;BME280;55906;52.278;6.808;2023-05-08T10:51:54;101928.75;;;31.39;34.22
68871;BME280;55906;52.278;6.808;2023-05-08T10:54:31;101924.94;;;31.43;33.88
68871;BME280;55906;52.278;6.808;2023-05-08T10:57:07;101924.19;;;31.60;34.44
68871;BME280;55906;52.278;6.808;2023-05-08T10:59:35;101918.41;;;31.47;34.60
68871;BME280;55906;52.278;6.808;2023-05-08T11:02:05;101915.41;;;31.53;34.79
68871;BME280;55906;52.278;6.808;2023-05-08T11:04:32;101925.75;;;30.57;34.61
68871;BME280;55906;52.278;6.808;2023-05-08T11:06:59;101932.47;;;29.77;36.31
68871;BME280;55906;52.278;6.808;2023-05-08T11:09:29;101935.84;;;29.08;37.33
68871;BME280;55906;52.278;6.808;2023-05-08T11:12:07;101930.97;;;28.91;38.24
68871;BME280;55906;52.278;6.808;2023-05-08T11:14:42;101925.97;;;28.49;38.57
68871;BME280;55906;52.278;6.808;2023-05-08T11:17:10;101929.25;;;28.00;40.12
68871;BME280;55906;52.278;6.808;2023-05-08T11:19:37;101926.50;;;28.01;39.80
68871;BME280;55906;52.278;6.808;2023-05-08T11:22:31;101928.91;;;27.49;41.67
68871;BME280;55906;52.278;6.808;2023-05-08T11:25:04;101926.28;;;27.46;41.35
68871;BME280;55906;52.278;6.808;2023-05-08T11:30:25;101922.47;;;27.53;41.52
68871;BME280;55906;52.278;6.808;2023-05-08T11:33:12;101921.56;;;27.18;42.37
68871;BME280;55906;52.278;6.808;2023-05-08T11:35:41;101918.53;;;27.32;42.57
68871;BME280;55906;52.278;6.808;2023-05-08T11:38:13;101918.13;;;27.47;42.18
68871;BME280;55906;52.278;6.808;2023-05-08T11:40:46;101914.75;;;27.71;41.71
68871;BME280;55906;52.278;6.808;2023-05-08T11:43:24;101916.34;;;27.46;41.76
68871;BME280;55906;52.278;6.808;2023-05-08T11:45:51;101916.16;;;27.18;42.42
68871;BME280;55906;52.278;6.808;2023-05-08T11:48:18;101921.28;;;26.93;42.55
68871;BME280;55906;52.278;6.808;2023-05-08T11:50:46;101922.09;;;26.97;42.26
68871;BME280;55906;52.278;6.808;2023-05-08T11:53:12;101921.34;;;26.90;42.59
68871;BME280;55906;52.278;6.808;2023-05-08T11:55:39;101903.81;;;27.08;42.84
68871;BME280;55906;52.278;6.808;2023-05-08T11:58:12;101909.16;;;27.45;42.48
68871;BME280;55906;52.278;6.808;2023-05-08T12:00:41;101903.91;;;27.73;41.68
68871;BME280;55906;52.278;6.808;2023-05-08T12:03:11;101905.50;;;27.80;41.30
68871;BME280;55906;52.278;6.808;2023-05-08T12:05:38;101898.66;;;27.67;41.77
68871;BME280;55906;52.278;6.808;2023-05-08T12:08:05;101909.06;;;27.48;42.04
68871;BME280;55906;52.278;6.808;2023-05-08T12:10:32;101903.38;;;27.25;42.20
68871;BME280;55906;52.278;6.808;2023-05-08T12:13:15;101902.38;;;27.29;41.71
68871;BME280;55906;52.278;6.808;2023-05-08T12:15:42;101895.66;;;27.45;41.77
68871;BME280;55906;52.278;6.808;2023-05-08T12:18:09;101900.59;;;27.28;41.81
68871;BME280;55906;52.278;6.808;2023-05-08T12:20:35;101904.50;;;26.81;42.88
68871;BME280;55906;52.278;6.808;2023-05-08T12:23:02;101893.31;;;26.96;42.40
68871;BME280;55906;52.278;6.808;2023-05-08T12:25:29;101895.66;;;26.74;41.92
68871;BME280;55906;52.278;6.808;2023-05-08T12:27:56;101901.34;;;25.80;42.73
68871;BME280;55906;52.278;6.808;2023-05-08T12:30:25;101889.53;;;25.86;42.82
68871;BME280;55906;52.278;6.808;2023-05-08T12:32:52;101893.91;;;25.91;42.78
68871;BME280;55906;52.278;6.808;2023-05-08T12:35:19;101894.88;;;25.89;43.57
68871;BME280;55906;52.278;6.808;2023-05-08T12:37:46;101882.03;;;26.01;43.09
68871;BME280;55906;52.278;6.808;2023-05-08T12:40:24;101893.09;;;25.88;43.35
68871;BME280;55906;52.278;6.808;2023-05-08T12:42:51;101899.50;;;25.82;43.77
68871;BME280;55906;52.278;6.808;2023-05-08T12:45:18;101894.38;;;25.70;43.98
68871;BME280;55906;52.278;6.808;2023-05-08T12:47:47;101893.44;;;25.71;42.87
68871;BME280;55906;52.278;6.808;2023-05-08T12:50:14;101891.72;;;25.67;43.59
68871;BME280;55906;52.278;6.808;2023-05-08T12:52:42;101898.88;;;25.20;44.21
68871;BME280;55906;52.278;6.808;2023-05-08T12:55:25;101891.59;;;25.25;44.19
68871;BME280;55906;52.278;6.808;2023-05-08T12:57:58;101896.78;;;25.37;44.59
68871;BME280;55906;52.278;6.808;2023-05-08T13:00:33;101892.38;;;25.32;45.21
68871;BME280;55906;52.278;6.808;2023-05-08T13:03:02;101890.16;;;25.53;44.63